Rechercher aéroport 
image banner adimage banner ad
image banner ad

SVGD - Guasdualito Vara De Maria Ntl

Situé à Guasdualito, Venezuela

ICAO - SVGD, IATA - GDO

Données fournies par Airmate  

Information générale

Coordonnées: N7°12'39" W70°45'23"
Élévation : 427 feet MSL.
 
Voir autres Aéroports à Apure

Données opérationnelles

Accessible au public
Heure actuelle UTC:
Heure actuelle locale:
Météo
METAR: SVGD 261502Z AUTO 03007KT NCD 29/23 Q1014
Voir NOTAMs / SUP AIP / TFR affectant cet aéroport [VIEW]
Fréquences de communication: [VIEW]

Pistes:

Identifiant RWYQFULongueur (ft)Largeur (ft)SurfaceLDA (ft)
0656°390498
24236°390498

Coordonnées de l'aéroport

Adresse: Guasdualito Venezuela

Vue satellite de SVGD